Home > Products > Valid Products > TAF

000
FTUS44 KTSA 191700
TAFFYV
TAF
KFYV 191726Z 1918/2018 07003KT 2SM BR BKN004
     FM192000 01003KT 4SM BR OVC007
     FM200600 00000KT 1/2SM FG OVC004
     FM201500 00000KT 4SM BR OVC007=



000
FTUS44 KTSA 191700
TAFXNA
TAF
KXNA 191726Z 1918/2018 07003KT 2SM BR BKN004
     FM192000 01003KT 4SM BR OVC007
     FM200600 00000KT 1/2SM FG OVC004
     FM201500 00000KT 4SM BR OVC007=



000
FTUS44 KTSA 191700
TAFFSM
TAF
KFSM 191726Z 1918/2018 07006KT 3SM BR OVC009
     FM192000 05004KT 2SM BR OVC012
     FM200900 00000KT 2SM BR OVC008=



000
FTUS44 KTSA 191700
TAFTUL
TAF
KTUL 191726Z 1918/2018 34007KT P6SM OVC008
     FM192000 36003KT P6SM OVC015
     FM201000 00000KT 4SM BR OVC015
     FM201500 17003KT P6SM BKN250=



000
FTUS44 KTSA 191700
TAFMLC
TAF
KMLC 191726Z 1918/2018 36005KT 1/2SM FG VCSH OVC002
     FM192000 01003KT 2SM BR OVC004
     FM192200 01003KT 4SM BR OVC007
     FM200000 00000KT 2SM BR OVC015=



000
FTUS44 KTSA 191700
TAFRVS
TAF
KRVS 191726Z 1918/2018 34007KT P6SM BKN012
     FM201000 00000KT 4SM BR OVC015
     FM201500 17003KT P6SM BKN250=



000
FTUS44 KTSA 191600 AAC
TAFXNA
TAF AMD
KXNA 191651Z 1917/2012 09003KT 3SM BR OVC002
     FM191800 00000KT 3SM BR OVC004
     FM191900 03004KT 5SM BR OVC007
     FM200600 00000KT 1/2SM FG VV002=



000
FTUS44 KTSA 191600 AAF
TAFMLC
TAF AMD
KMLC 191611Z 1916/2012 36005KT 1/2SM FG VCSH OVC002
     FM191900 VRB04KT 3SM BR BKN007
     FM192200 VRB04KT P6SM OVC015=



000
FTUS44 KTSA 191600 AAF
TAFMLC
TAF AMD
KMLC 191611Z 1916/2012 36005KT 1/2SM FG VCSH OVC002
     FM191900 VRB04KT 3SM BR BKN007
     FM192200 VRB04KT P6SM OVC015=



000
FTUS44 KTSA 191600 AAB
TAFFYV
TAF AMD
KFYV 191605Z 1916/2012 07003KT 1/4SM FG VV002
     FM191800 00000KT 2SM BR OVC005
     FM191900 03004KT 6SM BR OVC009
     FM200600 00000KT 2SM BR OVC003=



000
FTUS44 KTSA 191600 AAB
TAFFYV
TAF AMD
KFYV 191605Z 1916/2012 07003KT 1/4SM FG VV002
     FM191800 00000KT 2SM BR OVC005
     FM191900 03004KT 6SM BR OVC009
     FM200600 00000KT 2SM BR OVC003=



000
FTUS44 KTSA 191500 AAA
TAFRVS
TAF AMD
KRVS 191558Z 1916/2012 36003KT P6SM BKN008 OVC027
     FM191800 00000KT P6SM OVC015=



000
FTUS44 KTSA 191500 AAE
TAFMLC
TAF AMD
KMLC 191556Z 1916/2012 02007KT 1SM BR VCSH OVC003
     FM191800 VRB04KT 3SM BR BKN007
     FM191900 VRB04KT P6SM OVC015=



000
FTUS44 KTSA 191500 AAB
TAFXNA
TAF AMD
KXNA 191554Z 1916/2012 04004KT 1/2SM FG VV002
     FM191800 00000KT 2SM BR OVC004
     FM191900 03004KT 5SM BR OVC007
     FM200600 00000KT 1/2SM FG VV002=



000
FTUS44 KTSA 191500 AAD
TAFMLC
TAF AMD
KMLC 191532Z 1916/2012 01008KT 3SM BR VCSH OVC004
     FM191800 VRB04KT P6SM BKN007
     FM191900 VRB04KT P6SM OVC015=



000
FTUS44 KTSA 191400 AAA
TAFXNA
TAF AMD
KXNA 191459Z 1915/2012 09003KT 1/4SM FG VV002
     FM191600 00000KT 2SM BR OVC004
     FM191800 03004KT 5SM BR OVC007
     FM200600 00000KT 1/2SM FG VV002=



000
FTUS44 KTSA 191400 AAC
TAFMLC
TAF AMD
KMLC 191445Z 1915/2012 02006KT 4SM BR VCSH OVC005
     FM191600 VRB04KT P6SM BKN007
     FM191900 VRB04KT P6SM OVC015=



000
FTUS44 KTSA 191400 AAB
TAFMLC
TAF AMD
KMLC 191401Z 1914/2012 02005KT 3SM BR VCSH OVC004
     FM191600 VRB04KT P6SM BKN007
     FM191900 VRB04KT P6SM OVC015=



000
FTUS44 KTSA 191400 AAA
TAFTUL
TAF AMD
KTUL 191401Z 1914/2012 36007KT 4SM BR OVC006
     FM191600 01002KT P6SM OVC009
     FM191800 VRB02KT P6SM OVC015=



000
FTUS44 KTSA 191300 AAA
TAFMLC
TAF AMD
KMLC 191348Z 1914/2012 00000KT P6SM VCSH OVC006
      TEMPO 1914/1915 SCT011 OVC017
     FM191900 VRB04KT P6SM OVC015=



000
FTUS44 KTSA 191200 AAA
TAFFYV
TAF AMD
KFYV 191208Z 1912/2012 00000KT 1SM BR OVC003
     FM191600 00000KT 5SM BR OVC005
     FM191800 03004KT 6SM BR OVC009
     FM200600 00000KT 2SM BR OVC003=



000
FTUS44 KTSA 191100
TAFXNA
TAF
KXNA 191120Z 1912/2012 01003KT 1/2SM FG VV002
     FM191600 00000KT 2SM BR OVC004
     FM191800 03004KT 5SM BR OVC007
     FM200600 00000KT 1/2SM FG VV002=



000
FTUS44 KTSA 191100
TAFRVS
TAF
KRVS 191120Z 1912/2012 01007KT 5SM BR OVC004
     FM191600 01002KT P6SM OVC007
     FM191800 00000KT P6SM OVC015=



000
FTUS44 KTSA 191100
TAFTUL
TAF
KTUL 191120Z 1912/2012 35006KT 6SM BR OVC005
     FM191600 01002KT P6SM OVC009
     FM191800 VRB02KT P6SM OVC015=



000
FTUS44 KTSA 191100
TAFFYV
TAF
KFYV 191120Z 1912/2012 00000KT 5SM BR OVC005
     FM191800 03004KT 6SM BR OVC009
     FM200600 00000KT 2SM BR OVC003=



000
FTUS44 KTSA 191100
TAFMLC
TAF
KMLC 191120Z 1912/2012 04004KT 6SM BR VCSH OVC009
      TEMPO 1912/1915 SCT011 OVC017
     FM191900 VRB04KT P6SM OVC015=



000
FTUS44 KTSA 191100
TAFFSM
TAF
KFSM 191120Z 1912/2012 10004KT 5SM BR OVC008
     FM191700 08004KT P6SM OVC015=



000
FTUS44 KTSA 191000 AAA
TAFMLC
TAF AMD
KMLC 191000Z 1910/2006 04004KT 5SM BR OVC011
     FM191600 03004KT 6SM BR OVC007
     FM191900 02004KT P6SM OVC012
     FM200100 00000KT P6SM BKN025=



000
FTUS44 KTSA 191000 AAA
TAFMLC
TAF AMD
KMLC 191000Z 1910/2006 04004KT 5SM BR OVC011
     FM191600 03004KT 6SM BR OVC007
     FM191900 02004KT P6SM OVC012
     FM200100 00000KT P6SM BKN025=



000
FTUS44 KTSA 190900 AAA
TAFFSM
TAF AMD
KFSM 190901Z 1909/2006 10004KT 4SM BR OVC005
     FM191600 08004KT P6SM OVC012
     FM192100 07004KT P6SM OVC012
     FM200000 08003KT P6SM BKN025=



000
FTUS44 KTSA 190700 AAA
TAFXNA
TAF AMD
KXNA 190727Z 1907/2006 01003KT 1/4SM FG VV002
      TEMPO 1909/1913 1SM BR OVC003
     FM191300 00000KT 3SM BR OVC004
     FM191600 03004KT 6SM BR OVC007
     FM192100 06004KT P6SM OVC012=



000
FTUS44 KTSA 190500
TAFFSM
TAF
KFSM 190537Z 1906/2006 07005KT P6SM SCT008 BKN018 BKN022
     FM191000 06003KT 4SM BR BKN007 BKN012
     FM191600 08004KT P6SM OVC012
     FM192100 07004KT P6SM OVC012
     FM200000 08003KT P6SM BKN025=



000
FTUS44 KTSA 190500
TAFXNA
TAF
KXNA 190537Z 1906/2006 01003KT 4SM BR OVC005
     FM190900 00000KT 3SM BR OVC004
     FM191600 03004KT 6SM BR OVC007
     FM192100 06004KT P6SM OVC012=



000
FTUS44 KTSA 190500
TAFFYV
TAF
KFYV 190537Z 1906/2006 00000KT 5SM BR OVC007
     FM190900 00000KT 3SM BR OVC004
     FM191600 03004KT 6SM BR OVC007
     FM192100 VRB03KT P6SM OVC010=



000
FTUS44 KTSA 190500
TAFTUL
TAF
KTUL 190537Z 1906/2006 35004KT 6SM BR OVC007
     FM190900 36002KT 4SM BR OVC005
     FM191600 01002KT P6SM OVC007
     FM191800 02004KT P6SM OVC012
     FM200000 03003KT P6SM BKN025=



000
FTUS44 KTSA 190500
TAFMLC
TAF
KMLC 190537Z 1906/2006 03004KT 6SM BR SCT007 BKN012
     FM190800 03002KT 4SM BR OVC006
     FM191600 03004KT 6SM BR OVC007
     FM191900 02004KT P6SM OVC012
     FM200100 00000KT P6SM BKN025=



000
FTUS44 KTSA 190500
TAFRVS
TAF
KRVS 190537Z 1906/2006 02004KT P6SM OVC008
     FM190900 36002KT 4SM BR OVC005
     FM191600 01002KT 6SM BR OVC007
     FM191800 02004KT P6SM OVC012
     FM200000 00000KT P6SM BKN025=



000
FTUS44 KTSA 190400 AAB
TAFXNA
TAF AMD
KXNA 190401Z 1904/1924 01003KT 4SM BR OVC005
      TEMPO 1904/1906 1 1/2SM BR OVC002
     FM190900 00000KT 3SM BR OVC004
     FM191600 03004KT 6SM BR OVC007
     FM192100 06004KT P6SM OVC012=



000
FTUS44 KTSA 190400 AAB
TAFXNA
TAF AMD
KXNA 190401Z 1904/1924 01003KT 4SM BR OVC005
      TEMPO 1904/1906 1 1/2SM BR OVC002
     FM190900 00000KT 3SM BR OVC004
     FM191600 03004KT 6SM BR OVC007
     FM192100 06004KT P6SM OVC012=



000
FTUS44 KTSA 190300 AAA
TAFFSM
TAF AMD
KFSM 190304Z 1903/1924 07005KT P6SM SCT008 BKN018
     FM190600 06003KT 4SM BR OVC007
     FM190900 05003KT 2SM BR OVC004
     FM191600 08004KT 6SM BR OVC007
     FM192100 07004KT P6SM OVC012=



000
FTUS44 KTSA 190300 AAB
TAFMLC
TAF AMD
KMLC 190301Z 1903/1924 03004KT 6SM BR BKN005
     FM190900 03002KT 2SM BR OVC003
     FM191600 03004KT 6SM BR OVC007
     FM192100 02004KT P6SM OVC012=



000
FTUS44 KTSA 190200 AAA
TAFXNA
TAF AMD
KXNA 190207Z 1902/1924 01003KT 4SM BR OVC005
     FM190900 00000KT 3SM BR OVC004
     FM191600 03004KT 6SM BR OVC007
     FM192100 06004KT P6SM OVC012=



000
FTUS44 KTSA 190000 AAA
TAFMLC
TAF AMD
KMLC 190100Z 1901/1924 03004KT 4SM BR OVC002
     FM190900 03002KT 2SM BR OVC003
     FM191600 03004KT 6SM BR OVC007
     FM192100 02004KT P6SM OVC012=



000
FTUS44 KTSA 182300
TAFFSM
TAF
KFSM 182337Z 1900/1924 07005KT P6SM BKN008
     FM190600 06003KT 4SM BR OVC007
     FM190900 05003KT 2SM BR OVC004
     FM191600 08004KT 6SM BR OVC007
     FM192100 07004KT P6SM OVC012=



000
FTUS44 KTSA 182300
TAFXNA
TAF
KXNA 182337Z 1900/1924 34003KT 6SM BR OVC008
     FM190500 00000KT 5SM BR OVC006
     FM190900 00000KT 3SM BR OVC004
     FM191600 03004KT 6SM BR OVC007
     FM192100 06004KT P6SM OVC012=



000
FTUS44 KTSA 182300
TAFRVS
TAF
KRVS 182337Z 1900/1924 01004KT P6SM OVC010
     FM190200 01003KT 6SM BR OVC008
     FM190600 36002KT 3SM BR OVC004
     FM191500 01002KT 4SM BR OVC007
     FM191900 02004KT P6SM OVC012=



000
FTUS44 KTSA 182300
TAFMLC
TAF
KMLC 182337Z 1900/1924 03004KT P6SM OVC008
     FM190500 02003KT 6SM BR OVC006
     FM190900 03002KT 4SM BR OVC004
     FM191600 03004KT 6SM BR OVC007
     FM192100 02004KT P6SM OVC012=



000
FTUS44 KTSA 182300
TAFTUL
TAF
KTUL 182337Z 1900/1924 35004KT P6SM OVC010
     FM190200 35004KT 6SM BR OVC007
     FM190600 36002KT 3SM BR OVC004
     FM191500 01002KT 4SM BR OVC007
     FM191900 02004KT P6SM OVC012=



000
FTUS44 KTSA 182300
TAFFYV
TAF
KFYV 182337Z 1900/1924 34003KT P6SM OVC008
     FM190600 00000KT 5SM BR OVC007
     FM190900 00000KT 3SM BR OVC004
     FM191600 03004KT 6SM BR OVC007
     FM192100 VRB03KT P6SM OVC010=



000
FTUS44 KTSA 182100 AAB
TAFFYV
TAF AMD
KFYV 182159Z 1822/1918 26003KT P6SM OVC009
     FM190600 00000KT 5SM BR OVC007
     FM190900 00000KT 3SM BR OVC004=



000
FTUS44 KTSA 182100 AAC
TAFMLC
TAF AMD
KMLC 182159Z 1822/1918 03004KT P6SM OVC008
     FM190900 03002KT 4SM BR OVC004=



000
FTUS44 KTSA 182100 AAB
TAFFYV
TAF AMD
KFYV 182159Z 1822/1918 26003KT P6SM OVC009
     FM190600 00000KT 5SM BR OVC007
     FM190900 00000KT 3SM BR OVC004=



000
FTUS44 KTSA 182100 AAC
TAFMLC
TAF AMD
KMLC 182159Z 1822/1918 03004KT P6SM OVC008
     FM190900 03002KT 4SM BR OVC004=



000
FTUS44 KTSA 182100 AAC
TAFXNA
TAF AMD
KXNA 182122Z 1821/1918 VRB03KT P6SM OVC007
     FM190600 00000KT 5SM BR OVC007
     FM190900 00000KT 3SM BR OVC004=



000
FTUS44 KTSA 182100 AAB
TAFRVS
TAF AMD
KRVS 182122Z 1821/1918 01003KT P6SM OVC010
     FM190600 36002KT 3SM BR OVC004
     FM191500 01002KT 4SM BR OVC007=



000
FTUS44 KTSA 182100 AAA
TAFTUL
TAF AMD
KTUL 182122Z 1821/1918 35004KT P6SM OVC011
     FM190600 36002KT 3SM BR OVC004
     FM191500 01002KT 4SM BR OVC007=



000
FTUS44 KTSA 182000 AAA
TAFFSM
TAF AMD
KFSM 182046Z 1821/1918 06005KT P6SM OVC008
     FM190600 11003KT 4SM BR OVC007
     FM190900 05003KT 2SM BR OVC004=



000
FTUS44 KTSA 182000 AAB
TAFMLC
TAF AMD
KMLC 182045Z 1821/1918 00000KT P6SM OVC011
     FM190900 03002KT 4SM BR OVC004=



000
FTUS44 KTSA 182000 AAA
TAFFYV
TAF AMD
KFYV 182045Z 1821/1918 00000KT P6SM OVC011
     FM190600 00000KT 5SM BR OVC007
     FM190900 00000KT 3SM BR OVC004=



000
FTUS44 KTSA 182000 AAA
TAFRVS
TAF AMD
KRVS 182003Z 1820/1918 00000KT P6SM OVC008
     FM190600 36002KT 3SM BR OVC004
     FM191500 01002KT 4SM BR OVC007=



000
FTUS44 KTSA 181900 AAA
TAFMLC
TAF AMD
KMLC 181920Z 1819/1918 00000KT P6SM OVC007
     FM190900 03002KT 4SM BR OVC004=



000
FTUS44 KTSA 181900 AAB
TAFXNA
TAF AMD
KXNA 181919Z 1819/1918 VRB03KT 5SM BR OVC006
     FM182100 29003KT P6SM OVC015
     FM190600 00000KT 5SM BR OVC007
     FM190900 00000KT 3SM BR OVC004=



000
FTUS44 KTSA 181800 AAA
TAFXNA
TAF AMD
KXNA 181848Z 1819/1918 25003KT P6SM OVC004
      TEMPO 1819/1821 OVC008
     FM182100 29003KT P6SM OVC015
     FM190600 00000KT 5SM BR OVC007
     FM190900 00000KT 3SM BR OVC004=



000
FTUS44 KTSA 181700
TAFRVS
TAF
KRVS 181730Z 1818/1918 00000KT 6SM BR OVC006
      TEMPO 1818/1820 2SM BR OVC004
     FM190600 36002KT 3SM BR OVC004
     FM191500 01002KT 4SM BR OVC007=



000
FTUS44 KTSA 181700
TAFXNA
TAF
KXNA 181730Z 1818/1918 00000KT P6SM OVC009
      TEMPO 1818/1821 OVC012
     FM182100 29003KT P6SM OVC015
     FM190600 00000KT 5SM BR OVC007
     FM190900 00000KT 3SM BR OVC004=



000
FTUS44 KTSA 181700
TAFMLC
TAF
KMLC 181730Z 1818/1918 00000KT P6SM OVC006
      TEMPO 1818/1820 OVC004
     FM190900 03002KT 4SM BR OVC004=



000
FTUS44 KTSA 181700
TAFTUL
TAF
KTUL 181730Z 1818/1918 00000KT 6SM BR OVC007
     FM190600 36002KT 3SM BR OVC004
     FM191500 01002KT 4SM BR OVC007=



000
FTUS44 KTSA 181700
TAFFSM
TAF
KFSM 181730Z 1818/1918 08006KT P6SM OVC006
      TEMPO 1818/1821 OVC012
     FM190600 11003KT 4SM BR OVC007
     FM190900 05003KT 2SM BR OVC004=



000
FTUS44 KTSA 181700
TAFFYV
TAF
KFYV 181730Z 1818/1918 00000KT P6SM OVC009
      TEMPO 1818/1821 OVC012
     FM182100 29003KT P6SM OVC015
     FM190600 00000KT 5SM BR OVC007
     FM190900 00000KT 3SM BR OVC004=



000
FTUS44 KTSA 181600 AAC
TAFMLC
TAF AMD
KMLC 181616Z 1816/1912 00000KT 6SM BR OVC003
     FM181800 12003KT P6SM OVC008
     FM182200 07005KT P6SM OVC012
     FM190100 03003KT 4SM BR OVC006=



000
FTUS44 KTSA 181600 AAB
TAFXNA
TAF AMD
KXNA 181616Z 1816/1912 00000KT 4SM BR OVC004
     FM181800 14004KT 4SM BR OVC007
     FM182100 02005KT 5SM BR OVC012=



000
FTUS44 KTSA 181600 AAA
TAFTUL
TAF AMD
KTUL 181615Z 1816/1912 00000KT 4SM BR OVC004
     FM181800 14004KT 4SM BR OVC007
     FM182100 02005KT 5SM BR OVC012
     FM190100 02003KT 4SM BR OVC007=



000
FTUS44 KTSA 181600 AAA
TAFRVS
TAF AMD
KRVS 181615Z 1816/1912 16003KT 6SM BR OVC003
     FM181800 12003KT 4SM BR OVC007
     FM182100 03004KT 5SM BR OVC012
     FM190100 02003KT 4SM BR OVC007=



000
FTUS44 KTSA 181400 AAB
TAFMLC
TAF AMD
KMLC 181426Z 1814/1912 00000KT P6SM OVC005
     FM181800 12003KT P6SM OVC008
     FM182200 07005KT P6SM OVC012
     FM190100 03003KT 4SM BR OVC006=



000
FTUS44 KTSA 181400 AAB
TAFFSM
TAF AMD
KFSM 181424Z 1814/1912 08006KT 4SM BR OVC004
     FM181800 10005KT 5SM BR OVC007
     FM182200 10005KT 5SM BR OVC012
     FM190100 05003KT 4SM BR OVC007=



000
FTUS44 KTSA 181400 AAA
TAFFYV
TAF AMD
KFYV 181423Z 1814/1912 00000KT P6SM OVC009
     FM182200 VRB04KT P6SM OVC012
     FM190100 00000KT 4SM BR OVC007=



000
FTUS44 KTSA 181200 AAA
TAFFSM
TAF AMD
KFSM 181258Z 1813/1912 08006KT 4SM BR OVC006
     FM182200 10005KT 5SM BR OVC012
     FM190100 05003KT 4SM BR OVC007=



000
FTUS44 KTSA 181200 AAA
TAFFSM
TAF AMD
KFSM 181258Z 1813/1912 08006KT 4SM BR OVC006
     FM182200 10005KT 5SM BR OVC012
     FM190100 05003KT 4SM BR OVC007=



000
FTUS44 KTSA 181200 AAA
TAFXNA
TAF AMD
KXNA 181228Z 1812/1912 15004KT 4SM BR OVC006
     FM182200 VRB04KT 5SM BR OVC012
     FM190100 04003KT 4SM BR OVC007=



000
FTUS44 KTSA 181200 AAA
TAFXNA
TAF AMD
KXNA 181228Z 1812/1912 15004KT 4SM BR OVC006
     FM182200 VRB04KT 5SM BR OVC012
     FM190100 04003KT 4SM BR OVC007=



000
FTUS44 KTSA 181200 AAA
TAFMLC
TAF AMD
KMLC 181227Z 1812/1912 00000KT 5SM BR OVC004
     FM181500 12003KT 5SM BR OVC006
     FM182200 07005KT 6SM BR OVC012
     FM190100 03003KT 4SM BR OVC006=



000
FTUS44 KTSA 181200 AAA
TAFMLC
TAF AMD
KMLC 181227Z 1812/1912 00000KT 5SM BR OVC004
     FM181500 12003KT 5SM BR OVC006
     FM182200 07005KT 6SM BR OVC012
     FM190100 03003KT 4SM BR OVC006=



000
FTUS44 KTSA 181100
TAFMLC
TAF
KMLC 181120Z 1812/1912 00000KT 5SM BR OVC006
     FM181500 12003KT 5SM BR OVC006
     FM182200 07005KT 6SM BR OVC012
     FM190100 03003KT 4SM BR OVC006=



000
FTUS44 KTSA 181100
TAFFYV
TAF
KFYV 181120Z 1812/1912 16003KT P6SM OVC013
     FM181600 10004KT 4SM BR OVC007
     FM182200 VRB04KT 5SM BR OVC012
     FM190100 00000KT 4SM BR OVC007=



000
FTUS44 KTSA 181100
TAFXNA
TAF
KXNA 181120Z 1812/1912 18005KT 3SM BR BKN005 OVC014
     FM181600 15004KT 4SM BR OVC007
     FM182200 VRB04KT 5SM BR OVC012
     FM190100 04003KT 4SM BR OVC007=



000
FTUS44 KTSA 181100
TAFRVS
TAF
KRVS 181120Z 1812/1912 12004KT 4SM BR OVC004
     FM181600 12003KT 4SM BR OVC007
     FM182100 03004KT 5SM BR OVC012
     FM190100 02003KT 4SM BR OVC007=



000
FTUS44 KTSA 181100
TAFTUL
TAF
KTUL 181120Z 1812/1912 13006KT 5SM -DZ BR OVC005
     FM181600 14004KT 4SM BR OVC007
     FM182100 02005KT 5SM BR OVC012
     FM190100 02003KT 4SM BR OVC007=



000
FTUS44 KTSA 181100
TAFFSM
TAF
KFSM 181120Z 1812/1912 08008KT 5SM BR FEW007 OVC018
     FM181600 08005KT 4SM BR OVC007
     FM182200 10005KT 5SM BR OVC012
     FM190100 05003KT 4SM BR OVC007=



000
FTUS44 KTSA 180500
TAFTUL
TAF
KTUL 180537Z 1806/1906 11005KT 4SM -DZ BR OVC007
     FM180800 13003KT 2SM -DZ BR OVC004
     FM181600 14004KT 4SM BR OVC007
     FM182100 02005KT 5SM BR OVC012
     FM190100 02003KT 4SM BR OVC007=



000
FTUS44 KTSA 180500
TAFRVS
TAF
KRVS 180537Z 1806/1906 11005KT 6SM -DZ BR OVC008
     FM180800 13002KT 2SM -DZ BR OVC004
     FM181600 12003KT 4SM BR OVC007
     FM182100 03004KT 5SM BR OVC012
     FM190100 02003KT 4SM BR OVC007=



000
FTUS44 KTSA 180500
TAFFYV
TAF
KFYV 180537Z 1806/1906 10004KT 6SM -DZ BR SCT015 OVC035
     FM180800 11003KT 5SM -DZ BR SCT008 BKN015
     FM180900 14004KT 2SM -DZ BR OVC007
     FM181200 16004KT 2SM -DZ BR OVC004
     FM181600 10004KT 4SM BR OVC007
     FM182200 VRB04KT 5SM BR OVC012
     FM190100 00000KT 4SM BR OVC007=



000
FTUS44 KTSA 180500
TAFFSM
TAF
KFSM 180537Z 1806/1906 10008KT 6SM -DZ BR SCT015 OVC045
     FM180800 10006KT 5SM BR SCT008 BKN015
     FM180900 08008KT 4SM BR OVC007
     FM181200 07006KT 2SM BR OVC004
     FM181600 08005KT 4SM BR OVC007
     FM182200 10005KT 5SM BR OVC012
     FM190100 05003KT 4SM BR OVC007=



000
FTUS44 KTSA 180500
TAFMLC
TAF
KMLC 180537Z 1806/1906 12004KT 6SM BR OVC012
     FM180700 14003KT 4SM -DZ BR OVC004
     FM181500 12003KT 5SM BR OVC006
     FM182200 07005KT 6SM BR OVC012
     FM190100 03003KT 4SM BR OVC006=



000
FTUS44 KTSA 180500
TAFXNA
TAF
KXNA 180537Z 1806/1906 11004KT 6SM -DZ BR SCT015 OVC035
     FM180800 12003KT 5SM -DZ BR SCT008 BKN015
     FM180900 14004KT 4SM -DZ BR OVC007
     FM181200 16004KT 2SM -DZ BR OVC004
     FM181600 15004KT 4SM BR OVC007
     FM182200 VRB04KT 5SM BR OVC012
     FM190100 04003KT 4SM BR OVC007=



000
FTUS44 KTSA 180400 AAA
TAFFSM
TAF AMD
KFSM 180415Z 1804/1824 07004KT 6SM -RA SCT008 OVC050
     FM180600 07010KT 5SM BR OVC015
     FM180900 07008KT 4SM BR OVC007
     FM181200 07006KT 2SM BR OVC004
     FM181600 08005KT 4SM BR OVC007
     FM182200 07005KT 5SM BR OVC012=



000
FTUS44 KTSA 180300 AAB
TAFMLC
TAF AMD
KMLC 180304Z 1803/1824 11006KT 6SM -DZ BR SCT008 OVC045
     FM180500 11004KT 5SM -DZ BR OVC012
     FM180900 14003KT 2SM BR OVC004
     FM181400 14003KT 5SM BR OVC006
     FM182200 07005KT 5SM BR OVC012=



000
FTUS44 KTSA 180300 AAA
TAFTUL
TAF AMD
KTUL 180302Z 1803/1824 11006KT 6SM -DZ BR BKN008 BKN012
     FM180500 11005KT 4SM -DZ BR OVC007
     FM180900 13003KT 2SM -DZ BR OVC004
     FM181500 10004KT 4SM BR OVC007
     FM182100 04005KT 5SM BR OVC012=



000
FTUS44 KTSA 180300 AAA
TAFRVS
TAF AMD
KRVS 180302Z 1803/1824 11006KT 6SM -DZ BR BKN008 BKN012
     FM180500 11005KT 4SM -DZ BR OVC006
     FM180900 13002KT 2SM -DZ BR OVC004
     FM181500 10003KT 4SM BR OVC007
     FM182100 04004KT 5SM BR OVC012=



000
FTUS44 KTSA 180000 AAA
TAFMLC
TAF AMD
KMLC 180039Z 1801/1824 08005KT 4SM -RA SCT015 OVC050
      TEMPO 1801/1802 3SM -TSRA BKN040CB
     FM180300 09003KT 5SM -RA BR SCT008 OVC025
     FM180500 11004KT 5SM -DZ BR OVC012
     FM180900 14003KT 2SM BR OVC004
     FM181400 14003KT 5SM BR OVC006
     FM182200 07005KT 5SM BR OVC012=



000
FTUS44 KTSA 172300 RRA
TAFMLC
TAF
KMLC 172337Z 1800/1824 08005KT 4SM -RA SCT008 SCT025 OVC050
      TEMPO 1800/1802 3SM -TSRA BKN008CB
     FM180200 09003KT 4SM -RA BR SCT008 OVC025
     FM180500 11004KT 5SM -DZ BR OVC012
     FM180900 14003KT 2SM BR OVC004
     FM181400 14003KT 5SM BR OVC006
     FM182200 07005KT 5SM BR OVC012=



000
FTUS44 KTSA 172300 RRA
TAFFYV
TAF
KFYV 172337Z 1800/1824 09002KT 5SM -RA SCT020 OVC050
      TEMPO 1800/1802 3SM -RA BR BKN015
     FM180400 12006KT 5SM -RA BR SCT008 BKN025 OVC035
     FM180600 14004KT 4SM -DZ BR OVC012
     FM180900 14004KT 2SM BR OVC007
     FM181200 16004KT 2SM BR OVC004
     FM181600 10004KT 4SM BR OVC007
     FM182200 07005KT 5SM BR OVC012=



000
FTUS44 KTSA 172300 RRA
TAFFSM
TAF
KFSM 172337Z 1800/1824 07004KT 5SM -RA SCT008 SCT015 OVC050
      TEMPO 1800/1802 3SM -RA BR BKN008
     FM180600 07010KT 5SM BR OVC015
     FM180900 07008KT 4SM BR OVC007
     FM181200 07006KT 2SM BR OVC004
     FM181600 08005KT 4SM BR OVC007
     FM182200 07005KT 5SM BR OVC012=



000
FTUS44 KTSA 172300 RRA
TAFTUL
TAF
KTUL 172337Z 1800/1824 10005KT 4SM -RA BR FEW008 SCT015 OVC050
     FM180200 10006KT 3SM -RA BR OVC012
     FM180500 11005KT 4SM -DZ BR OVC007
     FM180900 13003KT 2SM -DZ BR OVC004
     FM181500 10004KT 4SM BR OVC007
     FM182100 04005KT 5SM BR OVC012=



000
FTUS44 KTSA 172300 RRA
TAFRVS
TAF
KRVS 172337Z 1800/1824 08005KT 5SM -RA BR FEW008 SCT012 OVC050
     FM180200 10006KT 3SM -RA BR OVC012
     FM180600 11005KT 4SM -DZ BR OVC007
     FM180900 13002KT 2SM -DZ BR OVC004
     FM181500 10003KT 4SM BR OVC007
     FM182100 04004KT 5SM BR OVC012=



000
FTUS44 KTSA 172300 RRA
TAFXNA
TAF
KXNA 172337Z 1800/1824 10005KT 5SM -RA SCT025 OVC050
      TEMPO 1800/1802 3SM -RA BR BKN015
     FM180400 12006KT 5SM -RA SCT008 BKN025 OVC035
     FM180600 14004KT 4SM -DZ BR OVC015
     FM180900 14004KT 2SM BR OVC007
     FM181200 16004KT 2SM BR OVC004
     FM181600 15004KT 4SM BR OVC007
     FM182200 07005KT 5SM BR OVC012=



000
FTUS44 KTSA 171900 AAA
TAFXNA
TAF AMD
KXNA 171906Z 1719/1818 00000KT P6SM -RA BKN080 OVC090
     FM180000 09002KT 5SM -RA OVC050
     FM180300 12006KT 5SM -RA OVC025
     FM180600 14004KT 4SM -DZ BR OVC015
     FM180900 14004KT 4SM BR OVC007
     FM181200 16004KT 2SM BR OVC004=



000
FTUS44 KTSA 171900 AAA
TAFFYV
TAF AMD
KFYV 171906Z 1719/1818 09003KT P6SM -RA FEW060 BKN080 OVC090
     FM180000 09002KT 5SM -RA OVC050
     FM180300 12006KT 5SM -RA OVC025
     FM180600 14004KT 4SM -DZ BR OVC015
     FM180900 14004KT 4SM BR OVC007
     FM181200 16004KT 2SM BR OVC004=



000
FTUS44 KTSA 171900 AAA
TAFRVS
TAF AMD
KRVS 171905Z 1719/1818 11006KT P6SM VCSH OVC070
     FM172100 10005KT 5SM -RA BR OVC050
     FM180300 10006KT 4SM -DZ BR OVC012
     FM180600 11005KT 4SM -DZ BR OVC007
     FM180900 13005KT 2SM -DZ BR OVC004=



000
FTUS44 KTSA 171900 AAA
TAFTUL
TAF AMD
KTUL 171904Z 1719/1818 08004KT P6SM VCSH OVC060
     FM172200 10005KT 5SM -RA BR OVC050
     FM180300 10006KT 4SM -DZ BR OVC012
     FM180600 11005KT 4SM -DZ BR OVC007
     FM180900 13005KT 2SM -DZ BR OVC004=



000
FTUS44 KTSA 171700
TAFXNA
TAF
KXNA 171729Z 1718/1818 07003KT P6SM -RA OVC050
      TEMPO 1718/1720 3SM RAPL BKN030
     FM180000 09002KT 5SM -RA OVC050
     FM180300 12006KT 5SM -RA OVC025
     FM180600 14004KT 4SM -DZ BR OVC015
     FM180900 14004KT 4SM BR OVC007
     FM181200 16004KT 2SM BR OVC004=



000
FTUS44 KTSA 171700
TAFFSM
TAF
KFSM 171729Z 1718/1818 07004KT P6SM -RA OVC050
      TEMPO 1720/1724 2SM TSRA BKN030CB
     FM180600 07010KT 5SM BR OVC015
     FM180900 07008KT 4SM BR OVC007
     FM181200 07006KT 4SM BR OVC004=



000
FTUS44 KTSA 171700
TAFRVS
TAF
KRVS 171729Z 1718/1818 14004KT P6SM -RA OVC080
      TEMPO 1718/1720 3SM -RAPL BKN030
     FM180000 10005KT 4SM -RA BR OVC050
     FM180300 10006KT 4SM -DZ BR OVC012
     FM180600 11005KT 4SM -DZ BR OVC007
     FM180900 13005KT 2SM -DZ BR OVC004=



000
FTUS44 KTSA 171700
TAFFYV
TAF
KFYV 171729Z 1718/1818 07003KT P6SM -RA OVC050
      TEMPO 1718/1720 3SM RAPL BKN030
     FM180000 09002KT 5SM -RA OVC050
     FM180300 12006KT 5SM -RA OVC025
     FM180600 14004KT 4SM -DZ BR OVC015
     FM180900 14004KT 4SM BR OVC007
     FM181200 16004KT 2SM BR OVC004=



000
FTUS44 KTSA 171700
TAFMLC
TAF
KMLC 171729Z 1718/1818 08005KT P6SM -RA OVC050
      TEMPO 1720/1724 2SM TSRA BKN030CB
     FM180000 09003KT 4SM -RA BR OVC025
     FM180300 11004KT 5SM -DZ BR OVC015
     FM180900 14003KT 5SM BR OVC007
     FM181200 14003KT 5SM BR OVC004=



000
FTUS44 KTSA 171700
TAFTUL
TAF
KTUL 171729Z 1718/1818 14004KT P6SM -RA OVC080
      TEMPO 1718/1720 3SM -RAPL BKN030
     FM180000 10005KT 4SM -RA BR OVC050
     FM180300 10006KT 4SM -DZ BR OVC012
     FM180600 11005KT 4SM -DZ BR OVC007
     FM180900 13005KT 2SM -DZ BR OVC004=



000
FTUS44 KTSA 171100
TAFMLC
TAF
KMLC 171120Z 1712/1812 00000KT P6SM SCT090 BKN110
     FM171800 13006KT 5SM -RA SCT025 OVC045
     FM172100 12006KT 4SM -TSRA SCT015 BKN025CB
     FM180100 13004KT 3SM -SHRA BR BKN015 PROB30 1801/1806 -SHRA
      BKN007
     FM180600 13004KT 3SM BR VCSH BKN015 PROB30 1806/1812 -RA
      BKN007=



000
FTUS44 KTSA 171100
TAFXNA
TAF
KXNA 171120Z 1712/1812 02005KT P6SM OVC120
     FM171700 12005KT P6SM OVC070
     FM172000 13006KT P6SM VCSH OVC050
     FM172300 11006KT 4SM -RA SCT015 BKN025
     FM180200 12004KT 3SM -SHRA BR BKN015 PROB30 1802/1806 -SHRA
      OVC006
     FM180600 12004KT 3SM BR VCSH BKN015 PROB30 1806/1812 -RA
      OVC006=



000
FTUS44 KTSA 171100
TAFRVS
TAF
KRVS 171120Z 1712/1812 02003KT P6SM OVC090
     FM171300 09005KT P6SM OVC070
     FM171800 13006KT P6SM VCTS OVC050CB
     FM172200 12006KT 4SM -RA BR OVC025 PROB30 1722/1801 -RA BKN015
     FM180100 11004KT 3SM BR OVC015 PROB30 1801/1806 -RA BKN007
     FM180600 11004KT 4SM BR OVC015 PROB30 1806/1812 -RA BKN010=



000
FTUS44 KTSA 171100
TAFFYV
TAF
KFYV 171120Z 1712/1812 00000KT P6SM OVC120
     FM171700 15005KT P6SM OVC070
     FM171900 16006KT P6SM VCSH OVC050
     FM172300 14006KT 4SM -RA SCT015 BKN025
     FM180200 12004KT 3SM -SHRA BR BKN015 PROB30 1802/1806 -SHRA
      OVC006
     FM180600 12004KT 3SM BR VCSH BKN015 PROB30 1806/1812 -RA
      OVC006=



000
FTUS44 KTSA 171100
TAFTUL
TAF
KTUL 171120Z 1712/1812 04007KT P6SM OVC090
     FM171300 10005KT P6SM OVC070
     FM171800 12006KT P6SM VCTS OVC050CB
     FM172200 12006KT 4SM -RA BR OVC025 PROB30 1722/1801 -RA BKN015
     FM180100 11004KT 4SM BR OVC015 PROB30 1801/1806 -RA BKN010
     FM180600 11004KT 4SM BR OVC015 PROB30 1806/1812 -RA BKN010=



000
FTUS44 KTSA 171100
TAFFSM
TAF
KFSM 171120Z 1712/1812 VRB03KT P6SM OVC120
     FM171600 09005KT P6SM OVC070
     FM171900 10006KT P6SM VCSH OVC050
     FM172200 11006KT 4SM -RA SCT015 BKN025=



000
FTUS44 KTSA 170500 RRA
TAFMLC
TAF
KMLC 170537Z 1706/1806 06003KT P6SM BKN200
     FM171200 08003KT P6SM OVC070
     FM171800 13006KT 5SM -RA SCT025 OVC045
     FM172100 12006KT 4SM -TSRA SCT015 BKN025CB
     FM180100 13004KT 3SM BR VCSH BKN015 PROB30 1801/1806 -RA
      BKN007=



000
FTUS44 KTSA 170500 RRA
TAFRVS
TAF
KRVS 170537Z 1706/1806 00000KT P6SM BKN200
     FM171300 09005KT P6SM OVC070
     FM171800 13006KT P6SM VCSH OVC050 PROB30 1718/1722 5SM -RA
      OVC025
     FM172200 12006KT 4SM -RA BR OVC025 PROB30 1722/1801 -RA BKN015
     FM180100 11004KT 3SM BR OVC015 PROB30 1801/1806 -RA BKN007=



000
FTUS44 KTSA 170500 RRA
TAFXNA
TAF
KXNA 170537Z 1706/1806 05002KT P6SM BKN200
     FM171700 12005KT P6SM OVC070
     FM172000 13006KT P6SM VCSH OVC050 PROB30 1720/1723 5SM -RA
      OVC025
     FM172300 11006KT 4SM -RA SCT015 BKN025
     FM180200 12004KT 3SM BR VCSH BKN015 PROB30 1802/1806 -RA
      OVC006=



000
FTUS44 KTSA 170500 RRA
TAFFYV
TAF
KFYV 170537Z 1706/1806 00000KT P6SM BKN200
     FM171700 15005KT P6SM OVC070
     FM171900 16006KT P6SM VCSH OVC050 PROB30 1719/1723 5SM -RA
      OVC025
     FM172300 14006KT 4SM -RA SCT015 BKN025
     FM180200 12004KT 3SM BR VCSH BKN015 PROB30 1802/1806 -RA
      OVC006=



000
FTUS44 KTSA 170500 RRA
TAFTUL
TAF
KTUL 170537Z 1706/1806 07004KT P6SM BKN200
     FM171300 10005KT P6SM OVC070
     FM171800 12006KT P6SM VCSH OVC050 PROB30 1718/1722 5SM -RA
      OVC025
     FM172200 12006KT 4SM -RA BR OVC025 PROB30 1722/1801 -RA BKN015
     FM180100 11004KT 4SM BR OVC015 PROB30 1801/1806 -RA BKN010=



000
FTUS44 KTSA 170500 RRA
TAFFSM
TAF
KFSM 170537Z 1706/1806 07002KT P6SM BKN200
     FM171600 09005KT P6SM OVC070
     FM171900 10006KT P6SM VCSH OVC050 PROB30 1719/1722 5SM -RA
      OVC025
     FM172200 11006KT 4SM -RA SCT015 BKN025
     FM180200 08004KT 3SM BR VCSH BKN015 PROB30 1802/1806 -RA
      OVC006=



000
FTUS44 KTSA 162300
TAFMLC
TAF
KMLC 162337Z 1700/1724 03003KT P6SM BKN200
     FM171300 08003KT P6SM OVC070
     FM171800 13006KT 5SM -RA SCT025 OVC045
     FM172200 11006KT 4SM -RA BKN025=



000
FTUS44 KTSA 162300
TAFRVS
TAF
KRVS 162337Z 1700/1724 03003KT P6SM BKN200
     FM171400 10005KT P6SM OVC070
     FM171800 13006KT P6SM VCSH OVC050 PROB30 1718/1724 5SM -RA
      OVC025=



000
FTUS44 KTSA 162300
TAFTUL
TAF
KTUL 162337Z 1700/1724 02004KT P6SM BKN200
     FM171400 10005KT P6SM OVC070
     FM171800 12006KT P6SM VCSH OVC050 PROB30 1718/1724 5SM -RA
      OVC025=



000
FTUS44 KTSA 162300
TAFFYV
TAF
KFYV 162337Z 1700/1724 33006KT P6SM BKN020
     FM170200 01002KT P6SM SCT025 SCT200
     FM170600 00000KT P6SM BKN200
     FM171700 15005KT P6SM OVC070
     FM171900 13006KT P6SM OVC050 PROB30 1720/1724 5SM -RA OVC025=



000
FTUS44 KTSA 162300
TAFXNA
TAF
KXNA 162337Z 1700/1724 34007KT P6SM OVC020
     FM170300 01003KT P6SM SCT025 SCT200
     FM170600 03002KT P6SM BKN200
     FM171700 15005KT P6SM OVC070
     FM172000 13006KT P6SM OVC050 PROB30 1720/1724 5SM -RA OVC025=



000
FTUS44 KTSA 162300
TAFFSM
TAF
KFSM 162337Z 1700/1724 33007KT P6SM SCT250
     FM170300 07002KT P6SM BKN200
     FM171600 09005KT P6SM OVC070
     FM171900 10006KT P6SM VCSH OVC050 PROB30 1719/1724 5SM -RA
      OVC025=



000
FTUS44 KTSA 162100 AAB
TAFXNA
TAF AMD
KXNA 162117Z 1621/1718 34008KT P6SM OVC018
     FM162300 34007KT P6SM SCT020
     FM170100 33002KT P6SM SCT250=



000
FTUS44 KTSA 162100 AAB
TAFFYV
TAF AMD
KFYV 162117Z 1621/1718 33007KT P6SM OVC020
     FM162300 33006KT P6SM SCT020
     FM170100 33002KT P6SM SCT250=



000
FTUS44 KTSA 161900 AAA
TAFFSM
TAF AMD
KFSM 161909Z 1619/1718 30008KT P6SM OVC030
     FM162000 30007KT P6SM SCT250
     FM170600 07002KT P6SM SCT250
     FM171500 07005KT P6SM OVC100=



000
FTUS44 KTSA 161900 AAA
TAFXNA
TAF AMD
KXNA 161909Z 1619/1718 34011KT P6SM OVC018
     FM162100 31009KT P6SM SCT250
     FM170000 33002KT P6SM SCT250=



000
FTUS44 KTSA 161900 AAA
TAFFYV
TAF AMD
KFYV 161908Z 1619/1718 32008KT P6SM OVC019
     FM162100 31009KT P6SM SCT250
     FM170000 33002KT P6SM SCT250=



    US Dept of Commerce
    National Oceanic and Atmospheric Administration
    National Weather Service
    1325 East West Highway
    Silver Spring, MD 20910
    Page Author: NWS Internet Services Team
Disclaimer
Information Quality
Credits
Glossary
Privacy Policy
Freedom of Information Act (FOIA)
About Us
Career Opportunities